Time;durP1;ratioP1;P1;durP2;ratioP2;P2;SDS_P1;SDS_P2;PMS_P1;PMS_P2;Temp;Humidity;BMP_temperature;BMP_pressure;BME280_temperature;BME280_humidity;BME280_pressure;Samples;Min_cycle;Max_cycle;Signal;HPM_P1;HPM_P2
2023/07/28 00:01:54;;;;;;;7.20;1.75;;;17.70;99.90;;;;;;5101747;28;20035;-69
2023/07/28 00:04:20;;;;;;;0.80;0.65;;;17.80;99.90;;;;;;5102459;28;20100;-70
2023/07/28 00:06:45;;;;;;;1.67;1.58;;;17.90;99.90;;;;;;5098164;28;20409;-70
2023/07/28 00:09:11;;;;;;;0.43;0.43;;;17.60;99.90;;;;;;5101684;27;20060;-71
2023/07/28 00:11:37;;;;;;;0.98;0.90;;;17.90;99.90;;;;;;5104892;27;20031;-71
2023/07/28 00:14:02;;;;;;;2.55;1.85;;;17.70;99.90;;;;;;5106155;27;20497;-69
2023/07/28 00:16:28;;;;;;;0.40;0.40;;;17.60;99.90;;;;;;5086986;27;20038;-69
2023/07/28 00:18:53;;;;;;;1.95;0.90;;;17.70;99.90;;;;;;5104951;27;20540;-69
2023/07/28 00:21:19;;;;;;;3.65;1.30;;;17.90;99.90;;;;;;5135567;27;20042;-68
2023/07/28 00:23:44;;;;;;;1.08;0.88;;;17.70;99.90;;;;;;5107625;27;20038;-69
2023/07/28 00:26:10;;;;;;;1.13;0.75;;;17.90;99.90;;;;;;5121047;27;20123;-69
2023/07/28 00:28:36;;;;;;;0.65;0.65;;;17.80;99.90;;;;;;5102804;27;20046;-68
2023/07/28 00:31:01;;;;;;;1.55;0.90;;;17.60;99.90;;;;;;5104293;27;20073;-68
2023/07/28 00:33:27;;;;;;;1.85;1.08;;;17.90;99.90;;;;;;5087471;27;20095;-70
2023/07/28 00:35:52;;;;;;;2.33;0.90;;;17.60;99.90;;;;;;5104182;27;20031;-69
2023/07/28 00:38:18;;;;;;;1.13;0.80;;;17.50;99.90;;;;;;5134310;27;20039;-71
2023/07/28 00:40:44;;;;;;;13.52;1.23;;;17.60;99.90;;;;;;5097825;27;20035;-68
2023/07/28 00:43:09;;;;;;;1.23;1.13;;;17.60;99.90;;;;;;5122727;27;20046;-71
2023/07/28 00:45:36;;;;;;;2.25;1.55;;;17.70;99.90;;;;;;5110121;27;20160;-68
2023/07/28 00:48:02;;;;;;;1.45;0.90;;;17.60;99.90;;;;;;5116916;27;20067;-69
2023/07/28 00:50:28;;;;;;;1.83;0.93;;;17.60;99.90;;;;;;5105730;27;20035;-70
2023/07/28 00:52:55;;;;;;;1.65;1.25;;;17.60;99.90;;;;;;5106978;27;20077;-69
2023/07/28 00:55:22;;;;;;;0.82;0.82;;;17.70;99.90;;;;;;5103392;27;20066;-69
2023/07/28 00:57:47;;;;;;;0.77;0.55;;;17.80;99.90;;;;;;5102567;27;20066;-70
2023/07/28 01:00:13;;;;;;;0.90;0.85;;;17.90;99.90;;;;;;5125483;27;20028;-68
2023/07/28 01:02:39;;;;;;;0.88;0.80;;;17.80;99.90;;;;;;5098215;27;20102;-70
2023/07/28 01:05:05;;;;;;;1.02;0.80;;;17.70;99.90;;;;;;5120578;27;20040;-69
2023/07/28 01:07:48;;;;;;;1.00;1.00;;;17.90;99.90;;;;;;5101075;27;20027;-69
2023/07/28 01:10:17;;;;;;;;;;;17.60;99.90;;;;;;5108170;27;20046;-68
2023/07/28 01:12:43;;;;;;;1.00;0.98;;;17.80;99.90;;;;;;5100081;28;19927;-68
2023/07/28 01:15:09;;;;;;;1.05;0.70;;;17.60;99.90;;;;;;5123173;27;20456;-69
2023/07/28 01:17:35;;;;;;;1.75;1.02;;;17.70;99.90;;;;;;5105621;27;20028;-68
2023/07/28 01:20:01;;;;;;;0.85;0.30;;;17.90;99.90;;;;;;5136266;27;20035;-70
2023/07/28 01:23:04;;;;;;;1.75;0.82;;;17.60;99.90;;;;;;5105258;27;20741;-69
2023/07/28 01:26:09;;;;;;;0.95;0.88;;;17.60;99.90;;;;;;5082892;27;20064;-69
2023/07/28 01:28:35;;;;;;;0.47;0.47;;;17.80;99.90;;;;;;5097063;27;20056;-69
2023/07/28 01:31:06;;;;;;;1.42;1.05;;;17.60;99.90;;;;;;5100696;27;20031;-68
2023/07/28 01:33:32;;;;;;;1.35;0.52;;;17.60;99.90;;;;;;5105411;27;20063;-69
2023/07/28 01:36:01;;;;;;;0.47;0.47;;;17.80;99.90;;;;;;5101716;27;20037;-69
2023/07/28 01:38:27;;;;;;;0.85;0.32;;;17.90;99.90;;;;;;5106604;27;20485;-68
2023/07/28 01:40:53;;;;;;;4.22;0.85;;;17.70;99.90;;;;;;5105621;27;20051;-68
2023/07/28 01:43:19;;;;;;;0.90;0.90;;;17.80;99.90;;;;;;5103605;27;20071;-68
2023/07/28 01:45:45;;;;;;;3.50;1.27;;;17.80;99.90;;;;;;5103082;27;20068;-69
2023/07/28 01:48:10;;;;;;;3.10;1.60;;;17.70;99.90;;;;;;5081974;27;20051;-69
2023/07/28 01:50:37;;;;;;;1.13;0.75;;;17.90;99.90;;;;;;5107049;27;20451;-69
2023/07/28 01:53:03;;;;;;;0.68;0.63;;;17.70;99.90;;;;;;5137471;27;20363;-68
2023/07/28 01:55:29;;;;;;;0.73;0.73;;;17.60;99.90;;;;;;5102948;27;20031;-68
2023/07/28 01:58:00;;;;;;;0.80;0.47;;;17.60;99.90;;;;;;5099111;27;20484;-70
2023/07/28 02:00:26;;;;;;;1.80;1.23;;;17.50;99.90;;;;;;5099514;27;20039;-69
2023/07/28 02:02:52;;;;;;;1.27;1.13;;;17.60;99.90;;;;;;5104731;27;20031;-68
2023/07/28 02:05:18;;;;;;;2.80;1.23;;;17.90;99.90;;;;;;5109550;27;20031;-68
2023/07/28 02:07:44;;;;;;;1.08;0.55;;;17.70;99.90;;;;;;5100232;27;20477;-69
2023/07/28 02:10:10;;;;;;;2.55;1.30;;;17.90;99.90;;;;;;5137428;27;20039;-68
2023/07/28 02:12:36;;;;;;;2.53;0.82;;;17.60;99.90;;;;;;5104523;27;20039;-68
2023/07/28 02:15:02;;;;;;;0.88;0.88;;;17.60;99.90;;;;;;5104441;27;20023;-68
2023/07/28 02:17:28;;;;;;;5.63;2.20;;;17.90;99.90;;;;;;5095253;27;20031;-68
2023/07/28 02:19:53;;;;;;;2.05;1.50;;;17.60;99.90;;;;;;5134872;27;20401;-68
2023/07/28 02:22:19;;;;;;;0.50;0.50;;;17.60;99.90;;;;;;5090314;27;20118;-68
2023/07/28 02:24:44;;;;;;;0.75;0.57;;;17.60;99.90;;;;;;5103246;27;20054;-68
2023/07/28 02:27:10;;;;;;;1.88;1.20;;;17.90;99.90;;;;;;5105922;27;20087;-68
2023/07/28 02:29:36;;;;;;;1.95;0.93;;;17.90;99.90;;;;;;5103005;27;20481;-68
2023/07/28 02:32:01;;;;;;;9.85;1.13;;;17.70;99.90;;;;;;5135568;27;20050;-70
2023/07/28 02:34:27;;;;;;;1.30;0.70;;;17.90;99.90;;;;;;5102104;27;20473;-69
2023/07/28 02:36:52;;;;;;;0.90;0.85;;;17.90;99.90;;;;;;5100909;28;20044;-70
2023/07/28 02:39:18;;;;;;;0.30;0.30;;;17.60;99.90;;;;;;5100643;27;20379;-68
2023/07/28 02:41:44;;;;;;;1.75;1.65;;;17.60;99.90;;;;;;5100639;27;20081;-68
2023/07/28 02:44:10;;;;;;;0.60;0.60;;;17.90;99.90;;;;;;5104256;27;20039;-68
2023/07/28 02:46:36;;;;;;;2.17;1.75;;;17.90;99.90;;;;;;5122382;27;20039;-68
2023/07/28 02:49:03;;;;;;;1.10;0.77;;;17.60;99.90;;;;;;5102650;27;20051;-68
2023/07/28 02:51:30;;;;;;;2.05;1.25;;;17.60;99.90;;;;;;5105791;27;20489;-67
2023/07/28 02:53:55;;;;;;;0.60;0.60;;;17.70;99.90;;;;;;5127852;27;20065;-69
2023/07/28 02:56:21;;;;;;;1.58;0.57;;;17.60;99.90;;;;;;5101663;27;20031;-67
2023/07/28 02:58:48;;;;;;;1.00;0.90;;;17.80;99.90;;;;;;5129507;27;20397;-69
2023/07/28 03:01:14;;;;;;;1.42;0.57;;;17.80;99.90;;;;;;5100343;27;20060;-69
2023/07/28 03:03:39;;;;;;;0.93;0.93;;;17.90;99.90;;;;;;5102738;27;20031;-69
2023/07/28 03:06:05;;;;;;;1.38;0.60;;;17.60;99.90;;;;;;5102718;27;20089;-68
2023/07/28 03:08:31;;;;;;;3.10;1.38;;;17.70;99.90;;;;;;5106131;27;20131;-68
2023/07/28 03:11:02;;;;;;;2.40;1.55;;;17.80;99.90;;;;;;5097238;27;20046;-68
2023/07/28 03:13:28;;;;;;;0.75;0.63;;;17.60;99.90;;;;;;5102509;27;20082;-69
2023/07/28 03:15:54;;;;;;;0.65;0.50;;;17.90;99.90;;;;;;5102287;27;20027;-69
2023/07/28 03:18:19;;;;;;;1.40;1.30;;;17.70;99.90;;;;;;5102411;27;20036;-69
2023/07/28 03:20:46;;;;;;;0.47;0.30;;;17.60;99.90;;;;;;5105632;27;20023;-71
2023/07/28 03:23:11;;;;;;;1.35;1.05;;;17.60;99.90;;;;;;5093666;28;20118;-70
2023/07/28 03:25:37;;;;;;;1.05;0.88;;;17.70;99.90;;;;;;5104582;27;20121;-70
2023/07/28 03:28:02;;;;;;;0.85;0.85;;;17.80;99.90;;;;;;5094919;27;20136;-70
2023/07/28 03:30:28;;;;;;;1.27;0.82;;;17.70;99.90;;;;;;5104577;27;20034;-69
2023/07/28 03:32:54;;;;;;;1.60;0.88;;;17.90;99.90;;;;;;5123994;27;20036;-69
2023/07/28 03:35:19;;;;;;;0.70;0.63;;;17.90;99.90;;;;;;5098157;27;20043;-70
2023/07/28 03:37:45;;;;;;;0.73;0.65;;;17.60;99.90;;;;;;5112451;27;20297;-70
2023/07/28 03:40:10;;;;;;;0.90;0.90;;;17.70;99.90;;;;;;5102031;27;20101;-70
2023/07/28 03:42:36;;;;;;;1.60;1.08;;;17.90;99.90;;;;;;5102938;27;20039;-70
2023/07/28 03:45:03;;;;;;;1.67;1.58;;;18.00;99.90;;;;;;5105122;27;20474;-71
2023/07/28 03:47:28;;;;;;;1.67;1.25;;;17.70;99.90;;;;;;5100665;28;20043;-70
2023/07/28 03:49:54;;;;;;;4.78;1.95;;;17.70;99.90;;;;;;5103473;27;20041;-69
2023/07/28 03:52:19;;;;;;;1.38;1.23;;;17.70;99.90;;;;;;5104760;28;20073;-70
2023/07/28 03:54:45;;;;;;;0.50;0.50;;;17.60;99.90;;;;;;5107699;28;20688;-71
2023/07/28 03:57:11;;;;;;;0.60;0.60;;;17.90;99.90;;;;;;5105977;28;20055;-70
2023/07/28 03:59:36;;;;;;;4.13;0.47;;;17.60;99.90;;;;;;5103006;28;20053;-71
2023/07/28 04:02:02;;;;;;;1.00;0.80;;;18.00;99.90;;;;;;5101426;28;20035;-69
2023/07/28 04:04:29;;;;;;;4.47;1.48;;;17.70;99.90;;;;;;5102900;28;20126;-70
2023/07/28 04:06:54;;;;;;;1.13;0.93;;;17.70;99.90;;;;;;5103209;28;20125;-70
2023/07/28 04:09:20;;;;;;;10.30;1.08;;;17.90;99.90;;;;;;5101792;28;20128;-69
2023/07/28 04:11:46;;;;;;;2.47;1.27;;;17.80;99.90;;;;;;5117402;27;20385;-69
2023/07/28 04:14:12;;;;;;;2.10;0.90;;;18.00;99.90;;;;;;5101632;28;20035;-69
2023/07/28 04:16:38;;;;;;;0.52;0.52;;;18.00;99.90;;;;;;5097613;28;20031;-69
2023/07/28 04:19:03;;;;;;;3.70;1.23;;;17.70;99.90;;;;;;5097522;28;20089;-69
2023/07/28 04:21:29;;;;;;;0.55;0.45;;;17.70;99.90;;;;;;5096574;28;20043;-70
2023/07/28 04:23:55;;;;;;;0.82;0.82;;;17.90;99.90;;;;;;5097501;28;20035;-71
2023/07/28 04:26:22;;;;;;;1.85;1.10;;;17.80;99.90;;;;;;5101757;28;20131;-70
2023/07/28 04:28:47;;;;;;;3.00;1.02;;;17.90;99.90;;;;;;5097308;28;20058;-71
2023/07/28 04:31:13;;;;;;;0.75;0.73;;;17.70;99.90;;;;;;5097063;28;21241;-70
2023/07/28 04:33:41;;;;;;;2.40;2.20;;;18.00;99.90;;;;;;5114014;28;20067;-70
2023/07/28 04:36:07;;;;;;;1.10;0.75;;;18.00;99.90;;;;;;5098105;28;20047;-70
2023/07/28 04:38:32;;;;;;;1.48;0.70;;;17.80;99.90;;;;;;5104955;28;20035;-70
2023/07/28 04:40:58;;;;;;;3.75;0.80;;;17.90;99.90;;;;;;5108730;28;20489;-70
2023/07/28 04:43:24;;;;;;;8.68;1.42;;;18.10;99.90;;;;;;5144474;27;20043;-70
2023/07/28 04:45:49;;;;;;;2.63;1.70;;;18.00;99.90;;;;;;5086357;28;20039;-70
2023/07/28 04:48:15;;;;;;;1.45;1.35;;;17.80;99.90;;;;;;5096985;28;20485;-70
2023/07/28 04:50:40;;;;;;;0.50;0.50;;;18.00;99.90;;;;;;5101071;28;20038;-71
2023/07/28 04:53:06;;;;;;;0.50;0.50;;;18.10;99.90;;;;;;5096001;28;20063;-70
2023/07/28 04:55:31;;;;;;;1.27;1.17;;;17.90;99.90;;;;;;5119446;27;20392;-71
2023/07/28 04:57:57;;;;;;;1.75;1.58;;;18.00;99.90;;;;;;5116769;27;20050;-70
2023/07/28 05:00:23;;;;;;;1.98;1.33;;;18.10;99.90;;;;;;5079094;28;20039;-69
2023/07/28 05:02:49;;;;;;;3.28;2.28;;;17.80;99.90;;;;;;5098196;27;20455;-71
2023/07/28 05:05:15;;;;;;;0.88;0.63;;;17.80;99.90;;;;;;5096648;27;20466;-70
2023/07/28 05:07:41;;;;;;;1.17;0.85;;;18.00;99.90;;;;;;5105949;27;20067;-71
2023/07/28 05:10:08;;;;;;;1.48;0.88;;;17.90;99.90;;;;;;5124921;27;20404;-70
2023/07/28 05:12:34;;;;;;;1.15;0.60;;;17.90;99.90;;;;;;5113320;27;20099;-70
2023/07/28 05:15:00;;;;;;;0.75;0.75;;;18.10;99.90;;;;;;5110345;27;20027;-70
2023/07/28 05:17:26;;;;;;;1.42;1.27;;;18.00;99.90;;;;;;5121009;27;20031;-71
2023/07/28 05:19:51;;;;;;;3.20;1.60;;;17.90;99.90;;;;;;5129589;27;20031;-70
2023/07/28 05:22:17;;;;;;;1.90;0.60;;;18.00;99.90;;;;;;5120474;27;20166;-70
2023/07/28 05:24:44;;;;;;;0.65;0.65;;;18.00;99.90;;;;;;5105875;27;20165;-70
2023/07/28 05:27:10;;;;;;;0.68;0.65;;;18.10;99.90;;;;;;5096311;27;20171;-70
2023/07/28 05:29:36;;;;;;;2.40;1.45;;;17.90;99.90;;;;;;5112406;27;20058;-70
2023/07/28 05:32:02;;;;;;;1.60;1.35;;;18.20;99.90;;;;;;5105852;27;20030;-70
2023/07/28 05:34:27;;;;;;;0.93;0.93;;;18.00;99.90;;;;;;5108725;27;20027;-70
2023/07/28 05:36:53;;;;;;;1.33;0.77;;;18.20;99.90;;;;;;5111711;27;20031;-69
2023/07/28 05:39:19;;;;;;;5.55;0.98;;;18.30;99.90;;;;;;5099929;28;20374;-71
2023/07/28 05:41:44;;;;;;;2.70;1.30;;;18.20;99.90;;;;;;5105999;27;20080;-70
2023/07/28 05:44:10;;;;;;;0.50;0.50;;;18.30;99.90;;;;;;5103582;27;20142;-71
2023/07/28 05:46:37;;;;;;;2.53;1.13;;;18.20;99.90;;;;;;5099209;27;20224;-70
2023/07/28 05:49:03;;;;;;;0.93;0.93;;;18.20;99.90;;;;;;5106363;27;20039;-70
2023/07/28 05:51:29;;;;;;;1.52;1.33;;;18.30;99.90;;;;;;5101485;27;20183;-69
2023/07/28 05:53:54;;;;;;;3.00;1.52;;;18.20;99.90;;;;;;5102316;27;20043;-70
2023/07/28 05:56:20;;;;;;;1.58;1.48;;;18.30;99.90;;;;;;5120701;27;20031;-70
2023/07/28 05:58:46;;;;;;;0.82;0.73;;;18.30;99.90;;;;;;5100470;28;20031;-71
2023/07/28 06:01:12;;;;;;;1.30;1.20;;;18.20;99.90;;;;;;5104554;27;20107;-70
2023/07/28 06:03:38;;;;;;;0.40;0.40;;;18.40;99.90;;;;;;5093956;28;20134;-69
2023/07/28 06:06:03;;;;;;;2.15;0.63;;;18.40;99.90;;;;;;5108244;27;20050;-70
2023/07/28 06:08:29;;;;;;;0.75;0.50;;;18.20;99.90;;;;;;5104382;27;20035;-70
2023/07/28 06:10:55;;;;;;;1.00;0.63;;;18.30;99.90;;;;;;5108679;27;20042;-69
2023/07/28 06:13:20;;;;;;;0.40;0.40;;;18.50;99.90;;;;;;5110815;27;20191;-69
2023/07/28 06:15:47;;;;;;;0.90;0.85;;;18.50;99.90;;;;;;5096146;27;20038;-70
2023/07/28 06:18:12;;;;;;;1.00;0.82;;;18.50;99.90;;;;;;5104489;27;20046;-70
2023/07/28 06:20:41;;;;;;;0.85;0.63;;;18.50;99.90;;;;;;5101105;27;20031;-70
2023/07/28 06:23:06;;;;;;;0.47;0.35;;;18.40;99.90;;;;;;5103388;27;20053;-67
2023/07/28 06:25:32;;;;;;;1.83;0.90;;;18.50;99.90;;;;;;5137252;27;20047;-67
2023/07/28 06:27:58;;;;;;;1.52;0.88;;;18.60;99.90;;;;;;5129073;27;20035;-69
2023/07/28 06:30:23;;;;;;;1.35;0.80;;;18.60;99.90;;;;;;5103523;27;20415;-72
2023/07/28 06:32:49;;;;;;;1.00;0.82;;;18.60;99.90;;;;;;5100132;27;20745;-68
2023/07/28 06:35:15;;;;;;;0.45;0.45;;;18.70;99.90;;;;;;5100546;27;20386;-69
2023/07/28 06:37:40;;;;;;;0.90;0.90;;;18.70;99.90;;;;;;5099185;28;20116;-67
2023/07/28 06:40:09;;;;;;;2.35;0.95;;;18.80;99.90;;;;;;5110953;27;20046;-69
2023/07/28 06:42:35;;;;;;;1.70;1.00;;;18.80;99.90;;;;;;5109056;27;20035;-71
2023/07/28 06:45:02;;;;;;;1.25;0.63;;;19.10;99.90;;;;;;5108839;27;20043;-70
2023/07/28 06:47:28;;;;;;;9.48;0.73;;;19.10;99.90;;;;;;5097605;27;20039;-70
2023/07/28 06:49:53;;;;;;;3.65;1.33;;;19.30;99.90;;;;;;5114278;27;20035;-69
2023/07/28 06:52:19;;;;;;;2.17;0.80;;;19.30;99.90;;;;;;5093418;28;20047;-69
2023/07/28 06:54:44;;;;;;;0.98;0.93;;;19.30;99.90;;;;;;5093577;27;20035;-69
2023/07/28 06:57:10;;;;;;;0.80;0.63;;;19.20;99.90;;;;;;5098243;27;20046;-70
2023/07/28 06:59:35;;;;;;;0.95;0.95;;;19.20;99.90;;;;;;5104618;27;20503;-66
2023/07/28 07:02:01;;;;;;;0.47;0.47;;;19.30;99.90;;;;;;5112044;27;20060;-68
2023/07/28 07:04:27;;;;;;;0.93;0.50;;;19.30;99.90;;;;;;5112980;27;20530;-68
2023/07/28 07:06:52;;;;;;;0.95;0.77;;;19.30;99.90;;;;;;5113137;27;20038;-69
2023/07/28 07:09:18;;;;;;;2.38;0.95;;;19.30;99.90;;;;;;5114367;27;20038;-68
2023/07/28 07:11:43;;;;;;;0.65;0.55;;;19.30;99.90;;;;;;5094506;27;20100;-71
2023/07/28 07:14:09;;;;;;;0.93;0.68;;;19.30;99.90;;;;;;5093754;28;20413;-68
2023/07/28 07:16:34;;;;;;;0.88;0.75;;;19.30;99.90;;;;;;5112198;27;20031;-67
2023/07/28 07:19:00;;;;;;;0.80;0.73;;;19.30;99.90;;;;;;5102445;27;20035;-68
2023/07/28 07:21:27;;;;;;;2.05;0.50;;;19.30;99.90;;;;;;5100230;28;20452;-69
2023/07/28 07:23:53;;;;;;;1.65;0.85;;;19.30;99.90;;;;;;5093336;28;20043;-68
2023/07/28 07:26:18;;;;;;;2.25;1.20;;;19.30;99.90;;;;;;5121795;27;20542;-68
2023/07/28 07:28:44;;;;;;;2.03;1.17;;;19.30;99.90;;;;;;5096820;28;20039;-68
2023/07/28 07:31:14;;;;;;;1.67;0.77;;;19.30;99.90;;;;;;5104094;27;20043;-69
2023/07/28 07:33:40;;;;;;;3.55;0.73;;;19.40;99.90;;;;;;5110848;27;20039;-67
2023/07/28 07:36:05;;;;;;;0.63;0.63;;;19.50;99.90;;;;;;5114270;27;20031;-67
2023/07/28 07:38:31;;;;;;;1.95;0.75;;;19.40;99.90;;;;;;5112096;27;20054;-68
2023/07/28 07:40:56;;;;;;;0.55;0.55;;;19.50;99.90;;;;;;5098653;28;20039;-68
2023/07/28 07:43:22;;;;;;;0.50;0.50;;;19.60;99.90;;;;;;5127349;27;20504;-66
2023/07/28 07:45:50;;;;;;;0.60;0.60;;;19.70;99.90;;;;;;5127310;27;20500;-67
2023/07/28 07:48:15;;;;;;;0.43;0.35;;;19.80;99.90;;;;;;5113459;27;20316;-69
2023/07/28 07:50:41;;;;;;;1.55;0.85;;;19.90;99.90;;;;;;5104555;27;20039;-66
2023/07/28 07:53:06;;;;;;;0.50;0.50;;;19.90;99.90;;;;;;5103132;28;20054;-66
2023/07/28 07:55:32;;;;;;;1.48;0.47;;;20.00;99.90;;;;;;5094081;28;20040;-66
2023/07/28 07:57:58;;;;;;;1.52;0.80;;;19.90;99.90;;;;;;5093457;28;20033;-68
2023/07/28 08:00:23;;;;;;;0.63;0.63;;;19.90;99.90;;;;;;5110981;28;20031;-66
2023/07/28 08:02:49;;;;;;;0.30;0.30;;;19.80;99.90;;;;;;5104553;28;20076;-66
2023/07/28 08:05:15;;;;;;;0.30;0.30;;;19.90;99.90;;;;;;5098546;28;20039;-66
2023/07/28 08:07:42;;;;;;;1.95;0.40;;;20.10;99.90;;;;;;5095627;28;20035;-66
2023/07/28 08:10:08;;;;;;;0.73;0.73;;;20.20;99.90;;;;;;5103930;28;20035;-67
2023/07/28 08:12:34;;;;;;;0.85;0.35;;;20.20;99.90;;;;;;5104300;28;20043;-65
2023/07/28 08:15:00;;;;;;;0.82;0.80;;;20.20;99.90;;;;;;5106830;28;20034;-65
2023/07/28 08:17:25;;;;;;;0.55;0.55;;;20.40;99.90;;;;;;5103794;28;20068;-68
2023/07/28 08:19:51;;;;;;;0.75;0.75;;;20.40;99.90;;;;;;5094132;28;20298;-67
2023/07/28 08:22:22;;;;;;;0.22;0.22;;;20.50;99.90;;;;;;5099177;28;20116;-67
2023/07/28 08:24:47;;;;;;;0.43;0.43;;;20.50;99.90;;;;;;5137690;27;20164;-66
2023/07/28 08:27:13;;;;;;;0.73;0.32;;;20.60;99.90;;;;;;5101535;28;20503;-66
2023/07/28 08:29:38;;;;;;;0.22;0.22;;;20.80;99.90;;;;;;5106706;27;20040;-66
2023/07/28 08:32:04;;;;;;;0.45;0.45;;;20.90;99.90;;;;;;5105528;27;20039;-67
2023/07/28 08:34:30;;;;;;;0.93;0.68;;;20.90;99.90;;;;;;5106932;27;20032;-66
2023/07/28 08:36:56;;;;;;;0.30;0.30;;;20.80;99.90;;;;;;5100602;27;20539;-66
2023/07/28 08:39:21;;;;;;;0.65;0.65;;;20.90;99.90;;;;;;5116696;27;20050;-66
2023/07/28 08:41:47;;;;;;;2.30;1.45;;;20.90;99.90;;;;;;5107429;27;20366;-67
2023/07/28 08:44:13;;;;;;;2.45;0.52;;;20.90;99.90;;;;;;5107402;27;20038;-65
2023/07/28 08:46:39;;;;;;;3.65;0.68;;;20.80;99.90;;;;;;5104492;27;20426;-65
2023/07/28 08:49:04;;;;;;;1.27;1.00;;;20.60;99.90;;;;;;5103233;27;20099;-67
2023/07/28 08:51:30;;;;;;;0.63;0.63;;;20.60;99.90;;;;;;5103592;27;20134;-66
2023/07/28 08:53:56;;;;;;;0.40;0.40;;;20.50;99.90;;;;;;5103566;27;20070;-65
2023/07/28 08:56:21;;;;;;;0.90;0.77;;;20.60;99.90;;;;;;5106697;27;20040;-65
2023/07/28 08:58:47;;;;;;;1.02;1.02;;;20.70;99.90;;;;;;5138306;27;20083;-66
2023/07/28 09:01:12;;;;;;;0.60;0.60;;;21.00;99.90;;;;;;5126431;27;20464;-66
2023/07/28 09:03:42;;;;;;;0.85;0.85;;;21.10;99.90;;;;;;5104543;28;20123;-66
2023/07/28 09:06:08;;;;;;;0.30;0.30;;;21.00;99.90;;;;;;5108640;27;20035;-66
2023/07/28 09:08:35;;;;;;;0.32;0.32;;;21.00;99.90;;;;;;5110035;27;20082;-67
2023/07/28 09:11:06;;;;;;;0.73;0.73;;;21.00;99.90;;;;;;5103248;27;20043;-67
2023/07/28 09:13:43;;;;;;;1.00;1.00;;;21.10;99.90;;;;;;5106045;27;20039;-67
2023/07/28 09:16:20;;;;;;;1.05;0.63;;;21.10;99.90;;;;;;5105468;27;20039;-67
2023/07/28 09:18:47;;;;;;;2.15;0.55;;;21.10;99.90;;;;;;5104396;27;20381;-67
2023/07/28 09:21:23;;;;;;;1.17;0.50;;;21.20;99.90;;;;;;5114099;27;20039;-66
2023/07/28 09:23:50;;;;;;;5.18;0.88;;;21.20;99.90;;;;;;5137824;27;20311;-66
2023/07/28 09:26:16;;;;;;;0.90;0.90;;;21.20;99.90;;;;;;5137567;27;20040;-65
2023/07/28 09:28:42;;;;;;;0.90;0.50;;;21.30;99.90;;;;;;5103180;27;20050;-67
2023/07/28 09:31:09;;;;;;;0.40;0.40;;;21.40;99.90;;;;;;5107543;27;20087;-65
2023/07/28 09:33:36;;;;;;;0.47;0.43;;;21.50;99.90;;;;;;5110474;27;20078;-67
2023/07/28 09:36:15;;;;;;;0.55;0.55;;;21.40;99.90;;;;;;5104745;27;20042;-66
2023/07/28 09:38:41;;;;;;;1.00;0.65;;;21.30;99.90;;;;;;5106253;27;20370;-66
2023/07/28 09:41:11;;;;;;;0.80;0.50;;;21.30;99.90;;;;;;5100989;27;20054;-66
2023/07/28 09:43:37;;;;;;;1.27;0.50;;;21.20;99.90;;;;;;5094710;28;20039;-66
2023/07/28 09:46:09;;;;;;;0.88;0.43;;;21.20;99.90;;;;;;5108686;27;20073;-67
2023/07/28 09:48:38;;;;;;;0.43;0.43;;;21.50;99.90;;;;;;5110515;27;20063;-66
2023/07/28 09:51:11;;;;;;;0.55;0.55;;;21.50;99.90;;;;;;5094742;28;20067;-66
2023/07/28 09:53:43;;;;;;;0.65;0.63;;;21.50;99.90;;;;;;5099085;27;20039;-68
2023/07/28 09:56:09;;;;;;;2.05;0.85;;;21.40;99.90;;;;;;5114745;27;20070;-66
2023/07/28 09:58:41;;;;;;;0.68;0.63;;;21.20;99.90;;;;;;5104074;28;20047;-66
2023/07/28 10:01:08;;;;;;;2.05;0.95;;;21.10;99.90;;;;;;5095385;28;20058;-66
2023/07/28 10:03:35;;;;;;;2.05;1.45;;;20.90;99.90;;;;;;5094318;28;20122;-66
2023/07/28 10:06:01;;;;;;;0.98;0.98;;;20.90;99.90;;;;;;5107903;27;20127;-66
2023/07/28 10:08:27;;;;;;;1.55;1.33;;;20.90;99.90;;;;;;5104875;27;20047;-66
2023/07/28 10:10:54;;;;;;;1.92;1.55;;;20.80;99.90;;;;;;5107738;27;20056;-66
2023/07/28 10:13:21;;;;;;;1.38;0.55;;;20.70;99.90;;;;;;5128399;27;20035;-66
2023/07/28 10:15:47;;;;;;;0.60;0.60;;;20.80;99.90;;;;;;5095051;28;20039;-66
2023/07/28 10:18:13;;;;;;;0.93;0.93;;;20.80;99.90;;;;;;5107083;28;20516;-65
2023/07/28 10:20:42;;;;;;;5.00;1.80;;;21.00;99.90;;;;;;5115225;27;20048;-67
2023/07/28 10:23:14;;;;;;;1.05;0.98;;;21.00;99.90;;;;;;5094725;28;20050;-67
2023/07/28 10:25:41;;;;;;;1.37;0.63;;;21.30;99.90;;;;;;5100857;27;20516;-66
2023/07/28 10:28:25;;;;;;;0.77;0.70;;;21.50;99.90;;;;;;5096995;28;20297;-66
2023/07/28 10:30:53;;;;;;;1.73;1.30;;;21.80;99.90;;;;;;5101943;27;20393;-67
2023/07/28 10:33:54;;;;;;;2.00;1.48;;;22.10;99.90;;;;;;5102436;27;20043;-65
2023/07/28 10:36:23;;;;;;;0.47;0.30;;;22.20;99.90;;;;;;5042563;28;20044;-67
2023/07/28 10:39:14;;;;;;;3.28;1.20;;;22.30;99.90;;;;;;5090650;27;20039;-66
2023/07/28 10:42:00;;;;;;;0.73;0.63;;;22.40;99.90;;;;;;5098155;27;20056;-66
2023/07/28 10:44:26;;;;;;;2.00;1.38;;;22.30;99.90;;;;;;5107804;27;20489;-66
2023/07/28 10:46:52;;;;;;;2.63;1.55;;;22.00;99.90;;;;;;5094173;28;20039;-67
2023/07/28 10:49:19;;;;;;;0.65;0.65;;;21.90;99.90;;;;;;5103009;28;20447;-67
2023/07/28 10:51:45;;;;;;;2.25;0.93;;;21.90;99.90;;;;;;5093957;28;20144;-71
2023/07/28 10:54:15;;;;;;;1.38;0.82;;;22.10;99.90;;;;;;5111463;27;20075;-66
2023/07/28 10:56:41;;;;;;;3.50;1.77;;;22.00;99.90;;;;;;5111787;27;20043;-66
2023/07/28 10:59:06;;;;;;;3.30;1.83;;;21.80;99.90;;;;;;5110951;27;20046;-65
2023/07/28 11:01:37;;;;;;;0.80;0.70;;;22.00;99.90;;;;;;5094691;27;20490;-67
2023/07/28 11:04:16;;;;;;;2.73;1.00;;;21.90;99.90;;;;;;5094291;28;20044;-66
2023/07/28 11:06:47;;;;;;;5.82;2.95;;;21.90;99.90;;;;;;5093666;28;20486;-66
2023/07/28 11:09:16;;;;;;;0.82;0.82;;;21.90;99.90;;;;;;5094738;28;20050;-66
2023/07/28 11:11:42;;;;;;;0.40;0.40;;;21.90;99.90;;;;;;5093604;27;20035;-67
2023/07/28 11:14:09;;;;;;;4.85;1.50;;;21.90;99.90;;;;;;5104180;27;20050;-67
2023/07/28 11:16:38;;;;;;;1.70;0.65;;;21.90;99.90;;;;;;5095754;28;20114;-66
2023/07/28 11:19:11;;;;;;;1.25;1.15;;;22.10;99.90;;;;;;5091821;28;20443;-66
2023/07/28 11:21:41;;;;;;;1.45;0.85;;;22.30;99.90;;;;;;5152556;27;20454;-67
2023/07/28 11:24:08;;;;;;;2.83;0.70;;;22.50;99.90;;;;;;5126473;27;20460;-66
2023/07/28 11:26:35;;;;;;;1.77;0.80;;;22.60;99.90;;;;;;5110300;27;20047;-67
2023/07/28 11:29:01;;;;;;;1.30;0.60;;;22.60;99.90;;;;;;5094153;28;20088;-67
2023/07/28 11:31:27;;;;;;;1.92;1.17;;;22.50;99.90;;;;;;5100698;27;20043;-66
2023/07/28 11:33:53;;;;;;;0.47;0.47;;;22.60;99.90;;;;;;5101960;28;20047;-65
2023/07/28 11:36:22;;;;;;;0.88;0.88;;;22.70;99.90;;;;;;5106386;27;20046;-67
2023/07/28 11:38:48;;;;;;;1.52;1.30;;;22.60;99.90;;;;;;5106342;27;20063;-67
2023/07/28 11:41:15;;;;;;;1.15;1.05;;;22.40;99.90;;;;;;5097974;28;20126;-66
2023/07/28 11:43:46;;;;;;;0.82;0.80;;;22.40;99.90;;;;;;5101864;27;20480;-67
2023/07/28 11:46:32;;;;;;;1.43;0.80;;;22.30;99.90;;;;;;5145883;27;20374;-67
2023/07/28 11:49:10;;;;;;;0.47;0.40;;;22.10;99.90;;;;;;5098230;27;20515;-66
2023/07/28 11:51:46;;;;;;;1.75;0.65;;;22.10;99.90;;;;;;5095345;28;20495;-67
2023/07/28 11:54:14;;;;;;;0.65;0.65;;;22.00;99.90;;;;;;5096958;28;20054;-65
2023/07/28 11:56:44;;;;;;;0.60;0.40;;;22.00;99.90;;;;;;5094303;27;20079;-69
2023/07/28 11:59:11;;;;;;;1.17;1.08;;;22.20;99.90;;;;;;5091971;28;20040;-67
2023/07/28 12:01:55;;;;;;;1.35;0.43;;;22.20;99.90;;;;;;5091561;28;20051;-67
2023/07/28 12:04:25;;;;;;;1.35;1.13;;;22.40;99.90;;;;;;5092078;28;20370;-68
2023/07/28 12:07:07;;;;;;;2.33;2.15;;;22.40;99.90;;;;;;5093059;28;20096;-67
2023/07/28 12:09:46;;;;;;;0.98;0.95;;;22.30;99.90;;;;;;5099802;28;20039;-65
2023/07/28 12:12:15;;;;;;;0.55;0.47;;;22.30;99.90;;;;;;5106638;28;20078;-66
2023/07/28 12:14:41;;;;;;;0.65;0.47;;;22.30;99.90;;;;;;5110361;28;20046;-68
2023/07/28 12:17:14;;;;;;;0.70;0.50;;;22.50;99.90;;;;;;5093226;28;20195;-66
2023/07/28 12:19:59;;;;;;;1.40;0.75;;;22.60;99.90;;;;;;5107438;28;20114;-67
2023/07/28 12:22:26;;;;;;;0.77;0.45;;;22.80;99.90;;;;;;5127408;27;20353;-66
2023/07/28 12:24:52;;;;;;;0.25;0.25;;;22.80;99.90;;;;;;5142043;27;20050;-68
2023/07/28 12:27:20;;;;;;;0.22;0.22;;;22.60;99.90;;;;;;5093598;28;20378;-67
2023/07/28 12:29:46;;;;;;;0.63;0.60;;;22.60;99.90;;;;;;5101656;28;21113;-65
2023/07/28 12:32:12;;;;;;;0.40;0.40;;;22.70;99.90;;;;;;5104118;28;20027;-65
2023/07/28 12:34:37;;;;;;;0.50;0.50;;;22.80;99.90;;;;;;5094277;28;20039;-67
2023/07/28 12:37:03;;;;;;;0.50;0.50;;;23.00;99.90;;;;;;5075846;28;20028;-68
2023/07/28 12:39:29;;;;;;;0.20;0.20;;;23.20;99.90;;;;;;5110958;27;20032;-67
2023/07/28 12:41:54;;;;;;;0.40;0.40;;;23.30;99.90;;;;;;5095519;28;20405;-67
2023/07/28 12:44:20;;;;;;;0.77;0.77;;;23.40;99.90;;;;;;5092852;28;20043;-66
2023/07/28 12:46:46;;;;;;;0.73;0.35;;;23.30;99.90;;;;;;5099337;28;20481;-66
2023/07/28 12:49:12;;;;;;;0.77;0.77;;;23.20;99.90;;;;;;5100685;28;20047;-66